Home   Weather   USA   Kanab   Past weeks
Flag for USA

Past Weather in Kanab, Utah, USA — Yesterday and Last 2 Weeks

Currently: 68 °F. Light rain. Passing clouds. (Weather station: Colorado City Municipal Airport, USA). See more current weather

Past Weather in Kanab — Graph

°F

Kanab Temperature Yesterday

Maximum temperature yesterday: 86 °F (at 12:35 pm)
Minimum temperature yesterday: 66 °F (at 2:35 am)
Average temperature yesterday: 75 °F

High & Low Weather Summary for the Past Weeks

 TemperatureHumidityPressure
High97 °F (Aug 3, 4:35 pm)94% (Aug 1, 1:35 am)30.32 "Hg (Aug 1, 1:35 am)
Low57 °F (Aug 7, 5:55 am)11% (Aug 7, 3:15 pm)30.06 "Hg (Aug 4, 6:55 pm)
Average76 °F56%30.20 "Hg
* Reported Jul 27 10:15 pm — Aug 11 10:55 pm, Kanab. Weather by CustomWeather, © 2022

Note: Actual official high and low records may vary slightly from our data, if they occured in-between our weather recording intervals... More about our weather records

Kanab Weather History for the Previous 24 Hours

Scroll right to see more
 ConditionsComfort  
Time TempWeatherWind HumidityBarometerVisibility
10:55 pm
Thu, Aug 11
68 °FClear.17 mph83%30.26 "Hg10 mi
10:35 pm70 °FClear.8 mph83%30.26 "Hg10 mi
10:15 pm70 °FClear.6 mph78%30.26 "Hg10 mi
9:55 pm70 °FPassing clouds.3 mph78%30.26 "Hg10 mi
9:35 pm70 °FPassing clouds.12 mph78%30.26 "Hg10 mi
9:15 pm70 °FDrizzle. Mostly cloudy.7 mph78%30.26 "Hg10 mi
8:55 pm70 °FLight rain. Mostly cloudy.13 mph83%30.26 "Hg10 mi
8:35 pm73 °FOvercast.12 mph69%30.25 "Hg10 mi
8:15 pm77 °FMostly cloudy.8 mph57%30.24 "Hg10 mi
7:35 pm79 °FThundershowers. Overcast.7 mph51%30.23 "Hg10 mi
6:55 pm79 °FThundershowers. Scattered clouds.7 mph54%30.22 "Hg10 mi
5:35 pm77 °FSunny.8 mph61%30.21 "Hg10 mi
5:15 pm75 °FThundershowers. Sunny.10 mph65%30.22 "Hg10 mi
4:55 pm79 °FSunny.10 mph58%30.23 "Hg10 mi
4:35 pm77 °FThundershowers. Scattered clouds.5 mph65%30.22 "Hg10 mi
3:35 pm73 °FThunderstorms. Broken clouds.10 mph69%30.24 "Hg7 mi
3:15 pm81 °FThundershowers. Partly sunny.23 mph51%30.24 "Hg7 mi
2:55 pm86 °FBroken clouds.7 mph33%30.23 "Hg10 mi
2:35 pm86 °FThundershowers. Broken clouds.7 mph33%30.24 "Hg10 mi
2:15 pm86 °FThundershowers. Scattered clouds.7 mph33%30.25 "Hg10 mi
1:55 pm86 °FScattered clouds.5 mph33%30.26 "Hg10 mi
1:35 pm86 °FScattered clouds.7 mph35%30.26 "Hg10 mi
1:15 pm86 °FScattered clouds.8 mph33%30.27 "Hg10 mi
12:55 pm86 °FPartly sunny.5 mph35%30.28 "Hg10 mi
12:35 pm86 °FSunny.No wind35%30.28 "Hg10 mi
12:15 pm84 °FThundershowers. Sunny.7 mph37%30.29 "Hg10 mi
11:55 am82 °FSunny.6 mph40%30.30 "Hg10 mi
11:35 am82 °FSunny.6 mph40%30.30 "Hg10 mi
11:15 am81 °FSunny.No wind42%30.30 "Hg10 mi
10:55 am79 °FScattered clouds.3 mph45%30.30 "Hg10 mi
10:35 am79 °FScattered clouds.3 mph51%30.30 "Hg10 mi
10:15 am79 °FScattered clouds.3 mph51%30.30 "Hg10 mi
9:55 am77 °FPartly sunny.5 mph54%30.30 "Hg10 mi
9:35 am77 °FScattered clouds.6 mph51%30.31 "Hg10 mi
8:55 am73 °FScattered clouds.6 mph61%30.30 "Hg10 mi
8:35 am72 °FSunny.No wind69%30.30 "Hg10 mi
6:55 am68 °FSunny.13 mph78%30.30 "Hg10 mi
6:35 am66 °FPassing clouds.9 mph83%30.30 "Hg10 mi
6:15 am66 °FPassing clouds.6 mph83%30.29 "Hg10 mi
5:55 am68 °FPassing clouds.9 mph73%30.28 "Hg10 mi
5:15 am68 °FPassing clouds.8 mph73%30.28 "Hg10 mi
4:55 am68 °FPassing clouds.10 mph73%30.28 "Hg10 mi
4:35 am68 °FPassing clouds.9 mph73%30.28 "Hg10 mi
4:15 am68 °FClear.10 mph73%30.28 "Hg10 mi
3:55 am68 °FClear.12 mph73%30.28 "Hg10 mi
3:35 am68 °FClear.12 mph73%30.28 "Hg10 mi
3:15 am66 °FClear.12 mph78%30.28 "Hg10 mi
2:35 am66 °FClear.10 mph73%30.28 "Hg10 mi
1:55 am70 °FClear.6 mph64%30.28 "Hg10 mi
1:35 am70 °FClear.13 mph69%30.28 "Hg10 mi
12:55 am72 °FClear.8 mph69%30.28 "Hg10 mi
12:15 am72 °FClear.9 mph65%30.31 "Hg10 mi
Weather by CustomWeather, © 2022

See weather overview